Airfield :
LOGIN :

Register | Disclaimer

   EN    FR    IT 

 










Legend :    VFR   Marginal VFR   IFR   Intensive IFR   Very Intensive IFR
Visi :
Ceiling :
>= 8 km
>= 3000ft
5 to 8 km
1000 to 3000 ft
1500m to 5 km
500 to 1000 ft
800 to 1500m
200 to 500 ft
< 800m
< 200 ft
Symbols :   Thunderstorms  Fog  Heavy snow  Heavy precipitations  Wind > 20 kt
SIGMETs :     Misc.  Thunderstorms  Icing  Turbulence  Mountain Waves  Volcanic Ashes







- Airport Elevation : 16 ft
- IATA code : SDR


LEXJ - Santander Cantabria

CURRENT METAR :
  • 170530Z 00000KT CAVOK 16/16 Q1021

EXPIRED METARs :
  • 170500Z 00000KT CAVOK 17/17 Q1020
  • 170430Z 20001KT CAVOK 17/17 Q1020
  • 170400Z 00000KT CAVOK 17/17 Q1020
  • 170330Z 00000KT CAVOK 17/17 Q1020
  • 170300Z AUTO 00000KT 7000 NCD 17/17 Q1020

TAF TAF LEXJ
Valid from the 17 at 03:00 until the 18 at 03:00 UTC


170200Z 1703/1803 VRB03KT CAVOK TX26/1715Z TN16/1706Z
TEMPO 1712/1718 05010KT
No reported NOTAMs for that airfield.



MET'MAP, your aeronautical weather chart ! - Copyright ORBIFLY December 2007 - Disclaimer

ORBIFLY MET'MAP TEAM :

Programming & Development : Alexandra Zaïnal
Concept & Development : Baudouin d'Aumeries
Co-Development & Prog : Marc-Olivier Méhu
Technical & hardware support : Manuel Goepfert

Contact : metmap@orbifly.com




SOURCES & CREDITS :

   NOAA